Metropolis, IL

1:50 AM CST on December 04, 2016 (GMT -0600)
APRSWXNET | | Change Station

Elev 383 ft 37.16 °N, 88.73 °W | Updated 20 minutes ago

Light Drizzle
Light Drizzle
39 °F
Feels Like 39 °F
N
0
Wind Variable Wind from North
Gusts 4.0 mph

Today
High -- | Low -- °F
--% Chance of Precip.
Yesterday
High -- | Low -- °F
Precip. -- in
Pressure 30.19 in
Visibility 7.0 miles
Clouds Overcast 4600 ft
Windchill 39 °F
Dew Point 36 °F
Humidity 88%
Rainfall in
Snow Depth Not available.
6:53 AM 4:37 PM
Waxing Crescent, 20% visible
METAR KM30 040735Z AUTO 00000KT 7SM -DZ OVC046 04/02 A3019 RMK AO2 T00380023
Pressure 30.19 in
Visibility 7.0 miles
Clouds Overcast 4600 ft
Windchill 39 °F
Dew Point 36 °F
Humidity 88%
Rainfall in
Snow Depth Not available.
6:53 AM 4:37 PM
Waxing Crescent, 20% visible
METAR KM30 040735Z AUTO 00000KT 7SM -DZ OVC046 04/02 A3019 RMK AO2 T00380023

10-Day Weather Forecast

Almanac

Astronomy

Dec. 04, 2016 Rise Set
Actual Time
Civil Twilight
Nautical Twilight
Astronomical Twilight
Moon
Length of Visible Light
Length of Day
Tomorrow will be .
, % of the Moon is Illuminated

Today's Extremes

State Highs State Lows

Community

WunderPhotos

Upload Photos

1,955,587 photos uploaded!

WunderBlog® & News

Nearby

Air Quality

  Air Quality AQ Index Pollutant
Not available.

Snow Depth

Station Depth Elevation

Earthquake Activity

City Distance Mag. Time & Date
Minimum magnitude displayed is 2.5.

Coastal Water Temperatures

Place Temperature

Stations

Nearby Weather Stations

Station Location Temp. Windchill Dew Point Humidity Wind Precip. Elev Updated Type
                   

Watches & Warnings

There are currently no watches in effect.